createdAt,value
2019-05-05T00:04:36.630Z,7.30
2019-05-05T00:09:31.059Z,7.00
2019-05-05T00:14:35.416Z,7.17
2019-05-05T00:19:33.089Z,7.27
2019-05-05T00:24:24.980Z,8.40
2019-05-05T00:29:18.794Z,7.93
2019-05-05T00:34:15.415Z,7.77
2019-05-05T00:39:10.525Z,8.43
2019-05-05T00:44:04.890Z,8.17
2019-05-05T00:48:58.855Z,7.87
2019-05-05T00:53:51.898Z,7.77
2019-05-05T00:58:46.193Z,8.43
2019-05-05T01:13:26.328Z,8.17
2019-05-05T01:18:24.451Z,8.60
2019-05-05T01:23:15.944Z,7.70
2019-05-05T01:28:09.916Z,8.47
2019-05-05T01:33:16.008Z,7.77
2019-05-05T01:38:11.395Z,8.13
2019-05-05T01:43:11.280Z,7.97
2019-05-05T01:48:06.667Z,8.60
2019-05-05T01:53:00.812Z,7.87
2019-05-05T01:57:56.315Z,8.67
2019-05-05T02:02:50.214Z,8.50
2019-05-05T02:07:45.027Z,9.33
2019-05-05T02:12:39.216Z,7.97
2019-05-05T02:17:35.247Z,8.00
2019-05-05T02:22:29.551Z,7.67
2019-05-05T02:27:25.262Z,8.13
2019-05-05T02:32:20.621Z,7.23
2019-05-05T02:37:16.027Z,8.90
2019-05-05T02:42:10.317Z,8.70
2019-05-05T02:47:11.489Z,8.40
2019-05-05T02:52:06.228Z,8.07
2019-05-05T02:57:00.143Z,7.53
2019-05-05T03:01:56.501Z,8.40
2019-05-05T03:06:54.313Z,9.10
2019-05-05T03:11:49.555Z,8.70
2019-05-05T03:16:43.768Z,9.07
2019-05-05T03:21:38.996Z,8.00
2019-05-05T03:26:34.076Z,8.30
2019-05-05T03:31:29.007Z,9.37
2019-05-05T03:36:24.525Z,8.90
2019-05-05T03:41:36.099Z,9.10
2019-05-05T03:46:31.452Z,8.47
2019-05-05T03:51:25.766Z,7.87
2019-05-05T03:56:19.858Z,8.27
2019-05-05T04:01:19.209Z,8.03
2019-05-05T04:06:14.657Z,8.60
2019-05-05T04:11:08.807Z,7.60
2019-05-05T04:16:09.054Z,6.70
2019-05-05T04:21:03.994Z,6.90
2019-05-05T04:25:58.229Z,7.50
2019-05-05T04:30:53.658Z,5.80
2019-05-05T04:35:47.440Z,5.77
2019-05-05T04:40:41.179Z,4.93
2019-05-05T04:45:35.168Z,3.83
2019-05-05T04:50:39.579Z,4.53
2019-05-05T04:55:33.788Z,4.00
2019-05-05T05:00:27.805Z,3.03
2019-05-05T05:05:35.424Z,3.53
2019-05-05T05:10:29.216Z,3.20
2019-05-05T05:15:24.213Z,3.87
2019-05-05T05:20:18.398Z,3.87
2019-05-05T05:25:13.591Z,4.67
2019-05-05T05:30:09.528Z,3.37
2019-05-05T05:40:10.109Z,2.33
2019-05-05T05:45:08.111Z,2.20
2019-05-05T05:50:04.152Z,2.00
2019-05-05T05:54:58.123Z,1.83
2019-05-05T05:59:54.745Z,1.50
2019-05-05T06:04:48.232Z,1.30
2019-05-05T06:09:43.784Z,1.40
2019-05-05T06:14:38.723Z,2.20
2019-05-05T06:19:35.879Z,1.47
2019-05-05T06:24:29.698Z,1.30
2019-05-05T06:29:23.894Z,1.50
2019-05-05T06:34:18.199Z,4.17
2019-05-05T06:39:13.668Z,5.60
2019-05-05T06:44:24.815Z,1.43
2019-05-05T06:49:18.627Z,1.50
2019-05-05T06:59:07.040Z,1.20
2019-05-05T07:04:00.847Z,2.27
2019-05-05T07:08:54.740Z,1.73
2019-05-05T07:18:41.781Z,1.40
2019-05-05T07:23:35.624Z,9.27
2019-05-05T07:28:29.531Z,3.80
2019-05-05T07:33:23.875Z,1.10
2019-05-05T07:38:19.764Z,20.33
2019-05-05T07:43:14.603Z,2.10
2019-05-05T07:48:08.574Z,1.20
2019-05-05T07:53:12.235Z,2.00
2019-05-05T07:58:00.100Z,1.50
2019-05-05T08:02:54.492Z,1.00
2019-05-05T08:07:48.447Z,1.37
2019-05-05T08:12:43.653Z,1.10
2019-05-05T08:17:39.276Z,4.07
2019-05-05T08:22:33.983Z,1.23
2019-05-05T08:27:29.671Z,3.90
2019-05-05T08:32:25.361Z,2.67
2019-05-05T08:42:14.272Z,3.67
2019-05-05T08:47:07.811Z,1.20
2019-05-05T08:52:04.639Z,0.80
2019-05-05T09:01:54.061Z,1.40
2019-05-05T09:06:47.117Z,1.40
2019-05-05T09:11:40.947Z,1.33
2019-05-05T09:16:36.695Z,0.70
2019-05-05T09:21:30.192Z,2.80
2019-05-05T09:26:34.836Z,1.60
2019-05-05T09:31:28.842Z,1.20
2019-05-05T09:36:24.309Z,1.03
2019-05-05T09:41:18.195Z,2.37
2019-05-05T09:46:14.479Z,0.97
2019-05-05T09:51:08.502Z,1.03
2019-05-05T09:56:04.240Z,4.70
2019-05-05T10:00:58.171Z,1.10
2019-05-05T10:05:53.641Z,1.20
2019-05-05T10:10:47.419Z,2.73
2019-05-05T10:20:34.784Z,3.53
2019-05-05T10:25:34.318Z,1.37
2019-05-05T10:30:28.538Z,7.17
2019-05-05T10:35:23.725Z,3.70
2019-05-05T10:40:20.324Z,1.00
2019-05-05T10:45:14.637Z,0.80
2019-05-05T10:50:10.335Z,1.00
2019-05-05T10:55:06.096Z,1.00
2019-05-05T11:00:10.079Z,1.00
2019-05-05T11:04:58.265Z,2.20
2019-05-05T11:09:52.727Z,1.30
2019-05-05T11:14:46.627Z,1.17
2019-05-05T11:19:40.698Z,0.83
2019-05-05T11:24:34.684Z,1.00
2019-05-05T11:29:28.539Z,0.83
2019-05-05T11:34:24.684Z,3.60
2019-05-05T11:39:18.739Z,0.90
2019-05-05T11:44:12.443Z,1.53
2019-05-05T11:49:08.091Z,1.60
2019-05-05T11:54:01.828Z,1.00
2019-05-05T12:03:49.326Z,1.40
2019-05-05T12:08:45.750Z,0.83
2019-05-05T12:13:40.343Z,1.00
2019-05-05T12:23:27.108Z,1.50
2019-05-05T12:28:26.253Z,11.73
2019-05-05T12:33:20.261Z,1.40
2019-05-05T12:38:14.051Z,0.90
2019-05-05T12:43:08.441Z,0.70
2019-05-05T12:48:09.659Z,1.70
2019-05-05T12:53:04.834Z,2.07
2019-05-05T12:57:58.918Z,0.90
2019-05-05T13:07:46.446Z,1.27
2019-05-05T13:12:40.137Z,1.57
2019-05-05T13:17:33.999Z,1.30
2019-05-05T13:22:33.798Z,1.20
2019-05-05T13:27:34.177Z,1.67
2019-05-05T13:32:27.619Z,2.03
2019-05-05T13:37:21.644Z,2.57
2019-05-05T13:42:15.501Z,1.80
2019-05-05T13:47:09.547Z,1.57
2019-05-05T13:52:05.403Z,1.97
2019-05-05T13:56:59.116Z,2.93
2019-05-05T14:01:53.978Z,4.77
2019-05-05T14:06:49.770Z,0.90
2019-05-05T14:11:45.946Z,1.50
2019-05-05T14:16:39.959Z,0.80
2019-05-05T14:21:34.054Z,2.97
2019-05-05T14:26:32.105Z,1.40
2019-05-05T14:31:41.909Z,3.53
2019-05-05T14:36:37.322Z,1.37
2019-05-05T14:41:31.529Z,2.20
2019-05-05T14:46:25.280Z,4.50
2019-05-05T14:51:19.464Z,0.97
2019-05-05T14:56:13.546Z,1.53
2019-05-05T15:01:08.109Z,1.93
2019-05-05T15:06:03.994Z,1.63
2019-05-05T15:11:15.892Z,1.70
2019-05-05T15:16:11.407Z,1.90
2019-05-05T15:21:06.131Z,1.37
2019-05-05T15:26:00.089Z,1.20
2019-05-05T15:30:54.534Z,1.70
2019-05-05T15:35:49.720Z,2.30
2019-05-05T15:40:44.685Z,1.27
2019-05-05T15:45:39.547Z,2.57
2019-05-05T15:50:33.734Z,6.60
2019-05-05T15:55:29.253Z,3.13
2019-05-05T16:00:25.659Z,6.33
2019-05-05T16:05:19.644Z,1.50
2019-05-05T16:10:14.245Z,1.40
2019-05-05T16:15:25.120Z,1.20
2019-05-05T16:20:24.373Z,0.90
2019-05-05T16:25:19.165Z,4.47
2019-05-05T16:30:15.116Z,1.53
2019-05-05T16:35:11.980Z,3.10
2019-05-05T16:40:09.867Z,2.57
2019-05-05T16:45:05.087Z,1.10
2019-05-05T16:49:58.847Z,4.80
2019-05-05T16:55:04.611Z,3.70
2019-05-05T16:59:58.639Z,6.33
2019-05-05T17:04:53.865Z,1.80
2019-05-05T17:09:49.456Z,1.90
2019-05-05T17:14:48.372Z,0.83
2019-05-05T17:19:44.385Z,2.23
2019-05-05T17:24:39.301Z,1.47
2019-05-05T17:29:34.469Z,1.17
2019-05-05T17:34:28.472Z,1.53
2019-05-05T17:39:23.794Z,0.83
2019-05-05T17:44:31.433Z,0.90
2019-05-05T17:49:32.961Z,1.73
2019-05-05T17:54:28.432Z,1.47
2019-05-05T17:59:23.710Z,0.90
2019-05-05T18:04:17.715Z,1.10
2019-05-05T18:09:23.529Z,1.10
2019-05-05T18:14:23.937Z,1.23
2019-05-05T18:19:19.682Z,1.27
2019-05-05T18:24:13.874Z,1.87
2019-05-05T18:29:07.836Z,1.60
2019-05-05T18:34:03.801Z,1.97
2019-05-05T18:38:57.423Z,2.90
2019-05-05T18:44:09.241Z,5.53
2019-05-05T18:49:04.987Z,7.23
2019-05-05T18:53:59.057Z,8.83
2019-05-05T18:58:54.240Z,4.93
2019-05-05T19:04:04.059Z,3.03
2019-05-05T19:09:01.806Z,3.20
2019-05-05T19:13:54.836Z,3.23
2019-05-05T19:18:48.636Z,2.10
2019-05-05T19:28:43.932Z,1.40
2019-05-05T19:33:29.903Z,2.00
2019-05-05T19:38:23.861Z,2.00
2019-05-05T19:43:19.218Z,2.17
2019-05-05T19:48:14.935Z,4.87
2019-05-05T19:53:10.197Z,1.80
2019-05-05T20:03:04.623Z,1.80
2019-05-05T20:07:55.365Z,2.27
2019-05-05T20:12:49.392Z,2.20
2019-05-05T20:17:44.450Z,2.90
2019-05-05T20:27:34.222Z,3.13
2019-05-05T20:32:28.971Z,3.17
2019-05-05T20:37:24.696Z,2.80
2019-05-05T20:42:18.653Z,2.73
2019-05-05T20:47:12.735Z,2.57
2019-05-05T20:52:06.500Z,22.10
2019-05-05T20:57:00.405Z,10.73
2019-05-05T21:01:57.140Z,8.23
2019-05-05T21:06:52.395Z,36.43
2019-05-05T21:11:46.131Z,48.33
2019-05-05T21:16:40.164Z,39.60
2019-05-05T21:21:35.635Z,19.53
2019-05-05T21:26:31.350Z,18.00
2019-05-05T21:31:25.216Z,4.90
2019-05-05T21:36:19.803Z,3.50
2019-05-05T21:41:13.930Z,3.73
2019-05-05T21:46:11.536Z,3.50
2019-05-05T21:51:14.260Z,3.50
2019-05-05T21:56:10.831Z,4.33
2019-05-05T22:01:07.480Z,3.70
2019-05-05T22:06:03.720Z,3.67
2019-05-05T22:10:56.907Z,3.60
2019-05-05T22:15:50.676Z,3.70
2019-05-05T22:20:48.967Z,3.33
2019-05-05T22:25:43.759Z,3.37
2019-05-05T22:30:38.195Z,3.10
2019-05-05T22:35:31.951Z,3.13
2019-05-05T22:40:26.935Z,3.23
2019-05-05T22:45:20.999Z,2.80
2019-05-05T22:50:16.396Z,3.53
2019-05-05T22:55:10.668Z,3.07
2019-05-05T23:00:23.855Z,3.57
2019-05-05T23:05:26.443Z,3.60
2019-05-05T23:10:20.381Z,3.40
2019-05-05T23:15:15.344Z,3.23
2019-05-05T23:20:16.288Z,3.37
2019-05-05T23:25:14.547Z,3.37
2019-05-05T23:30:10.175Z,3.90
2019-05-05T23:35:05.714Z,3.63
2019-05-05T23:39:59.459Z,3.87
2019-05-05T23:49:46.517Z,3.60
2019-05-05T23:54:40.271Z,4.03
2019-05-05T23:59:34.031Z,4.43
